Cairo, Egypt

7:58 AM EET on September 02, 2015 (GMT +0200)
Cairo International | | Change Station
CLOSE
Current Station
Airport
Location: Cairo,
Elevation: 243 ft
Nearby Weather Stations

Elev 243 ft 30.11 °N, 31.41 °E | Updated 28 minutes ago

Scattered Clouds
Scattered Clouds
79 °F
Feels Like 79 °F
N
0
Wind Variable Wind from North

Today
High -- | Low -- °F
--% Chance of Precip.
Yesterday
High -- | Low -- °F
Precip. -- in
5:31 AM 6:16 PM
Waning Gibbous, 83% visible
Pressure 29.89 in
Visibility 3.7 miles
Clouds Scattered Clouds 2500 ft
Dew Point 72 °F
Humidity 78%
Rainfall 0.00 in
Snow Depth Not available.
UV 2 out of 12
Pollen Not available.
Air Quality Not available.
Flu Activity Not available.
METAR HECA 020530Z 00000KT 6000 SCT025 26/22 Q1012 NOSIG
Pressure 29.89 in
Visibility 3.7 miles
Clouds Scattered Clouds 2500 ft
Dew Point 72 °F
Humidity 78%
Rainfall 0.00 in
Snow Depth Not available.
UV 2 out of 12
Pollen Not available.
Air Quality Not available.
Flu Activity Not available.
METAR HECA 020530Z 00000KT 6000 SCT025 26/22 Q1012 NOSIG

10-Day Weather Forecast

×

Almanac

Astronomy

Sep. 02, 2015 Rise Set
Actual Time
Civil Twilight
Nautical Twilight
Astronomical Twilight
Moon
Length of Visible Light
Length of Day
Tomorrow will be .
, % of the Moon is Illuminated

Today's Extremes

Country Highs Country Lows

Community

WunderPhotos

Upload Photos

1,851,709 photos uploaded!

WunderBlogs® & News

Nearby

Air Quality

  Air Quality AQ Index Pollutant
Not available.

Snow Depth

Station Depth Elevation

Earthquake Activity

City Distance Mag. Time & Date
Minimum magnitude displayed is 2.5.

Coastal Water Temperatures

Place Temperature

Stations

Nearby Weather Stations

Station Location Temp. Windchill Dew Point Humidity Wind Precip. Elev Updated Type